Alexander Maersk — OZRC2 — position and weather

sailwx.info

Track history (hours):
 
Tides and Currents Weather Stations Pressure Air Temp Water Temp Dewpoint Dewpoint Depression Visibility Wind Speed Wind Dir Waves Ship Positions

Alexander Maersk

Last reported at 2015-Jan-17 06:06 UTC. Time now 2015-Mar-03 00:33 UTC.
Position N 35°22' E 013°32'.
Warning: this ship's position is 44 days out of date.

Length 155 m; draft 9.4 m.

Type: Ship. MMSI: 219470000.

Date/timePositionNaut miles runAvg speedWind from/ knotsBaromVisibWave heightAir tempDewpointWater temp
2015-Jan-17 06:06N 35°22' E 013°32'23 8.5
2015-Jan-17 03:27N 35°32' E 013°57'8 8.9
2015-Jan-17 02:33N 35°36' E 014°06'9 8.6
2015-Jan-17 01:33N 35°40' E 014°15'17 8.7
2015-Jan-16 23:33N 35°48' E 014°34'2 0.4
2015-Jan-16 18:24N 35°49' E 014°32'0 0.0
2015-Jan-16 07:06N 35°49' E 014°32'0 0.0
2015-Jan-16 06:21N 35°49' E 014°32'0 0.0
2015-Jan-16 05:33N 35°49' E 014°32'0 0.0
2015-Jan-16 04:06N 35°49' E 014°32'0 0.0
2015-Jan-16 03:27N 35°49' E 014°32'0 0.0
2015-Jan-16 00:33N 35°49' E 014°32'0 0.0
2015-Jan-15 23:33N 35°49' E 014°32'0 0.0
2015-Jan-15 22:33N 35°49' E 014°32'0 0.0
2015-Jan-15 21:33N 35°49' E 014°32'1 0.4
2015-Jan-15 20:11N 35°49' E 014°33'11 6.5
2015-Jan-15 18:33N 35°42' E 014°23'12 8.7
2015-Jan-15 17:12N 35°37' E 014°10'6 8.8
2015-Jan-15 16:33N 35°35' E 014°04'1212.3
2015-Jan-15 15:33N 35°29' E 013°50'1313.0
2015-Jan-15 14:33N 35°23' E 013°36'10 9.6
2015-Jan-15 13:34N 35°19' E 013°25'77 9.5
2015-Jan-15 05:30N 34°45' E 012°02'  
Track history (hours):
 
Tides and Currents Weather Stations Pressure Air Temp Water Temp Dewpoint Dewpoint Depression Visibility Wind Speed Wind Dir Waves Ship Positions

Alexander Maersk

Last reported at 2015-Jan-17 06:06 UTC. Time now 2015-Mar-03 00:33 UTC.
Position N 35°22' E 013°32'.
Warning: this ship's position is 44 days out of date.

Length 155 m; draft 9.4 m.

Type: Ship. MMSI: 219470000.

Date/timePositionNaut miles runAvg speedWind from/ knotsBaromVisibWave heightAir tempDewpointWater temp
2015-Jan-17 06:06N 35°22' E 013°32'23 8.5
2015-Jan-17 03:27N 35°32' E 013°57'8 8.9
2015-Jan-17 02:33N 35°36' E 014°06'9 8.6
2015-Jan-17 01:33N 35°40' E 014°15'17 8.7
2015-Jan-16 23:33N 35°48' E 014°34'2 0.4
2015-Jan-16 18:24N 35°49' E 014°32'0 0.0
2015-Jan-16 07:06N 35°49' E 014°32'0 0.0
2015-Jan-16 06:21N 35°49' E 014°32'0 0.0
2015-Jan-16 05:33N 35°49' E 014°32'0 0.0
2015-Jan-16 04:06N 35°49' E 014°32'0 0.0
2015-Jan-16 03:27N 35°49' E 014°32'0 0.0
2015-Jan-16 00:33N 35°49' E 014°32'0 0.0
2015-Jan-15 23:33N 35°49' E 014°32'0 0.0
2015-Jan-15 22:33N 35°49' E 014°32'0 0.0
2015-Jan-15 21:33N 35°49' E 014°32'1 0.4
2015-Jan-15 20:11N 35°49' E 014°33'11 6.5
2015-Jan-15 18:33N 35°42' E 014°23'12 8.7
2015-Jan-15 17:12N 35°37' E 014°10'6 8.8
2015-Jan-15 16:33N 35°35' E 014°04'1212.3
2015-Jan-15 15:33N 35°29' E 013°50'1313.0
2015-Jan-15 14:33N 35°23' E 013°36'10 9.6
2015-Jan-15 13:34N 35°19' E 013°25'77 9.5
2015-Jan-15 05:30N 34°45' E 012°02'  

Dump ship's entire track history